createdAt,value
2022-12-17T00:01:44.236Z,97.27
2022-12-17T00:03:35.197Z,97.30
2022-12-17T00:05:26.612Z,97.06
2022-12-17T00:07:17.257Z,97.22
2022-12-17T00:09:08.091Z,97.01
2022-12-17T00:10:59.311Z,96.90
2022-12-17T00:12:49.734Z,96.95
2022-12-17T00:14:40.402Z,96.94
2022-12-17T00:16:31.166Z,97.03
2022-12-17T00:18:26.253Z,96.98
2022-12-17T00:20:16.959Z,96.73
2022-12-17T00:22:07.509Z,97.12
2022-12-17T00:23:58.418Z,96.86
2022-12-17T00:25:48.851Z,97.08
2022-12-17T00:27:39.318Z,96.91
2022-12-17T00:29:29.995Z,96.94
2022-12-17T00:31:20.847Z,97.09
2022-12-17T00:33:11.382Z,96.71
2022-12-17T00:35:02.094Z,96.91
2022-12-17T00:36:52.705Z,96.55
2022-12-17T00:38:43.304Z,96.71
2022-12-17T00:40:34.045Z,96.52
2022-12-17T00:42:24.708Z,96.65
2022-12-17T00:44:15.501Z,96.57
2022-12-17T00:46:06.225Z,96.52
2022-12-17T00:47:57.052Z,96.75
2022-12-17T00:49:47.655Z,96.82
2022-12-17T00:51:38.343Z,96.64
2022-12-17T00:53:29.248Z,96.61
2022-12-17T00:55:19.954Z,96.87
2022-12-17T00:57:10.773Z,96.77
2022-12-17T00:59:01.338Z,96.61
2022-12-17T01:00:52.083Z,96.69
2022-12-17T01:02:43.269Z,96.83
2022-12-17T01:04:33.957Z,96.65
2022-12-17T01:06:24.627Z,96.42
2022-12-17T01:08:15.710Z,96.35
2022-12-17T01:10:06.347Z,96.31
2022-12-17T01:11:57.488Z,96.32
2022-12-17T01:13:48.193Z,96.47
2022-12-17T01:15:41.548Z,96.55
2022-12-17T01:17:32.160Z,96.67
2022-12-17T01:19:22.744Z,96.42
2022-12-17T01:21:16.694Z,96.46
2022-12-17T01:23:07.237Z,96.42
2022-12-17T01:24:57.971Z,96.28
2022-12-17T01:26:48.665Z,96.33
2022-12-17T01:28:42.995Z,96.24
2022-12-17T01:30:33.570Z,96.10
2022-12-17T01:32:24.315Z,96.22
2022-12-17T01:34:15.046Z,96.18
2022-12-17T01:36:13.336Z,95.88
2022-12-17T01:38:04.108Z,95.90
2022-12-17T01:39:54.836Z,95.72
2022-12-17T01:41:45.454Z,95.76
2022-12-17T01:43:56.092Z,95.54
2022-12-17T01:45:55.451Z,95.84
2022-12-17T01:47:49.800Z,96.19
2022-12-17T01:49:42.250Z,95.98
2022-12-17T01:51:33.573Z,96.01
2022-12-17T01:53:25.673Z,95.85
2022-12-17T01:55:16.543Z,96.01
2022-12-17T01:57:07.238Z,96.09
2022-12-17T01:58:58.483Z,95.97
2022-12-17T02:00:49.324Z,96.15
2022-12-17T02:02:39.877Z,96.14
2022-12-17T02:04:30.645Z,96.29
2022-12-17T02:06:44.612Z,96.07
2022-12-17T02:08:56.744Z,96.15
2022-12-17T02:13:06.827Z,96.14
2022-12-17T02:15:05.285Z,96.27
2022-12-17T02:17:02.578Z,96.27
2022-12-17T02:18:59.136Z,96.45
2022-12-17T02:20:54.168Z,96.32
2022-12-17T02:23:23.831Z,96.38
2022-12-17T02:25:31.133Z,96.33
2022-12-17T02:27:25.029Z,96.56
2022-12-17T02:29:16.892Z,96.61
2022-12-17T02:31:07.696Z,96.47
2022-12-17T02:33:00.735Z,96.41
2022-12-17T02:34:51.466Z,96.27
2022-12-17T02:36:42.085Z,96.17
2022-12-17T02:38:37.670Z,96.27
2022-12-17T02:40:28.975Z,96.36
2022-12-17T02:42:19.708Z,96.22
2022-12-17T02:44:11.955Z,96.40
2022-12-17T02:46:02.700Z,96.18
2022-12-17T02:47:53.626Z,96.02
2022-12-17T02:49:44.388Z,96.11
2022-12-17T02:51:34.988Z,96.14
2022-12-17T02:53:26.269Z,96.29
2022-12-17T02:55:16.764Z,96.26
2022-12-17T02:58:39.322Z,96.34
2022-12-17T03:00:30.530Z,96.15
2022-12-17T03:02:21.020Z,95.92
2022-12-17T03:04:22.733Z,95.89
2022-12-17T03:06:13.251Z,96.10
2022-12-17T03:08:03.715Z,95.89
2022-12-17T03:09:54.452Z,95.92
2022-12-17T03:11:49.007Z,95.86
2022-12-17T03:13:42.847Z,95.96
2022-12-17T03:15:33.406Z,95.87
2022-12-17T03:17:24.010Z,95.80
2022-12-17T03:19:14.826Z,95.48
2022-12-17T03:21:05.339Z,95.49
2022-12-17T03:22:55.854Z,95.21
2022-12-17T03:24:46.376Z,95.26
2022-12-17T03:28:22.465Z,94.79
2022-12-17T03:30:12.784Z,95.04
2022-12-17T03:32:03.632Z,95.09
2022-12-17T03:33:54.418Z,94.87
2022-12-17T03:36:01.912Z,94.63
2022-12-17T03:37:52.685Z,94.90
2022-12-17T03:39:43.321Z,94.48
2022-12-17T03:41:34.170Z,94.34
2022-12-17T03:43:27.912Z,93.79
2022-12-17T03:45:18.026Z,94.11
2022-12-17T03:47:08.474Z,94.13
2022-12-17T03:48:59.589Z,93.99
2022-12-17T03:50:50.020Z,93.99
2022-12-17T03:52:40.525Z,94.27
2022-12-17T03:54:31.199Z,94.14
2022-12-17T03:56:21.550Z,94.59
2022-12-17T03:58:12.131Z,94.91
2022-12-17T04:00:02.774Z,94.94
2022-12-17T04:01:53.597Z,94.75
2022-12-17T04:03:44.377Z,94.51
2022-12-17T04:05:35.037Z,94.76
2022-12-17T04:07:25.802Z,94.86
2022-12-17T04:09:16.626Z,95.23
2022-12-17T04:11:07.341Z,95.34
2022-12-17T04:12:58.200Z,95.25
2022-12-17T04:14:48.986Z,95.48
2022-12-17T04:16:39.672Z,95.64
2022-12-17T04:18:30.296Z,95.58
2022-12-17T04:20:20.739Z,95.70
2022-12-17T04:22:11.081Z,95.86
2022-12-17T04:24:01.655Z,95.80
2022-12-17T04:25:52.436Z,95.82
2022-12-17T04:27:43.319Z,96.38
2022-12-17T04:29:33.985Z,96.44
2022-12-17T04:31:24.778Z,96.52
2022-12-17T04:33:15.265Z,96.92
2022-12-17T04:35:05.985Z,96.87
2022-12-17T04:36:56.626Z,96.94
2022-12-17T04:38:47.352Z,97.25
2022-12-17T04:40:37.887Z,97.17
2022-12-17T04:42:28.397Z,97.10
2022-12-17T04:44:20.148Z,97.21
2022-12-17T04:46:11.049Z,97.03
2022-12-17T04:48:01.452Z,97.21
2022-12-17T04:49:52.257Z,97.11
2022-12-17T04:51:42.929Z,97.15
2022-12-17T04:53:33.728Z,97.04
2022-12-17T04:55:24.832Z,96.93
2022-12-17T04:57:15.551Z,96.92
2022-12-17T04:59:06.013Z,96.85
2022-12-17T05:00:56.676Z,96.72
2022-12-17T05:02:47.400Z,96.77
2022-12-17T05:04:38.159Z,96.87
2022-12-17T05:06:29.328Z,96.84
2022-12-17T05:08:20.093Z,96.80
2022-12-17T05:10:24.621Z,96.77
2022-12-17T05:12:15.433Z,96.96
2022-12-17T05:14:06.164Z,96.88
2022-12-17T05:15:56.879Z,96.87
2022-12-17T05:17:47.574Z,96.44
2022-12-17T05:19:38.194Z,96.46
2022-12-17T05:21:33.168Z,96.24
2022-12-17T05:23:25.630Z,96.36
2022-12-17T05:25:16.517Z,96.22
2022-12-17T05:27:07.463Z,96.33
2022-12-17T05:28:58.479Z,96.04
2022-12-17T05:30:49.384Z,96.11
2022-12-17T05:32:39.758Z,95.94
2022-12-17T05:34:41.027Z,95.98
2022-12-17T05:36:31.769Z,95.62
2022-12-17T05:38:26.354Z,95.60
2022-12-17T05:40:16.889Z,95.46
2022-12-17T05:42:07.472Z,95.55
2022-12-17T05:43:57.726Z,95.62
2022-12-17T05:45:48.079Z,95.51
2022-12-17T05:47:38.627Z,95.71
2022-12-17T05:49:42.808Z,95.60
2022-12-17T05:51:38.346Z,95.58
2022-12-17T05:53:29.422Z,95.52
2022-12-17T05:55:19.936Z,95.81
2022-12-17T05:57:10.924Z,95.49
2022-12-17T05:58:47.134Z,95.83
2022-12-17T06:00:37.847Z,95.71
2022-12-17T06:02:28.551Z,95.84
2022-12-17T06:04:19.387Z,95.74
2022-12-17T06:06:14.333Z,95.58
2022-12-17T06:08:04.879Z,95.96
2022-12-17T06:09:55.389Z,95.78
2022-12-17T06:11:46.035Z,95.63
2022-12-17T06:13:36.968Z,95.42
2022-12-17T06:15:27.803Z,95.77
2022-12-17T06:17:18.547Z,95.42
2022-12-17T06:19:09.274Z,95.61
2022-12-17T06:21:00.487Z,95.29
2022-12-17T06:22:51.194Z,95.49
2022-12-17T06:24:45.913Z,95.52
2022-12-17T06:26:37.087Z,95.25
2022-12-17T06:28:27.657Z,95.47
2022-12-17T06:30:19.113Z,95.24
2022-12-17T06:32:09.951Z,95.42
2022-12-17T06:34:00.832Z,95.63
2022-12-17T06:35:51.686Z,95.22
2022-12-17T06:37:42.402Z,95.41
2022-12-17T06:39:33.267Z,95.27
2022-12-17T06:41:23.980Z,95.33
2022-12-17T06:43:15.688Z,95.18
2022-12-17T06:45:06.384Z,95.25
2022-12-17T06:46:56.839Z,95.46
2022-12-17T06:48:47.469Z,95.35
2022-12-17T06:50:37.968Z,95.48
2022-12-17T06:52:28.400Z,95.56
2022-12-17T06:54:19.165Z,95.65
2022-12-17T06:56:10.341Z,95.55
2022-12-17T06:58:01.119Z,95.52
2022-12-17T06:59:51.841Z,95.63
2022-12-17T07:01:42.597Z,95.67
2022-12-17T07:03:33.445Z,95.64
2022-12-17T07:05:24.432Z,95.72
2022-12-17T07:07:14.968Z,95.89
2022-12-17T07:09:06.104Z,96.50
2022-12-17T07:10:56.684Z,97.24
2022-12-17T07:12:47.808Z,97.23
2022-12-17T07:14:38.696Z,97.55
2022-12-17T07:16:29.156Z,97.33
2022-12-17T07:18:21.751Z,97.78
2022-12-17T07:20:12.566Z,97.68
2022-12-17T07:22:03.260Z,98.27
2022-12-17T07:23:53.850Z,97.60
2022-12-17T07:25:46.254Z,97.47
2022-12-17T07:27:37.061Z,97.77
2022-12-17T07:29:27.773Z,98.35
2022-12-17T07:31:18.545Z,98.85
2022-12-17T07:33:20.287Z,98.54
2022-12-17T07:35:10.908Z,98.74
2022-12-17T07:37:01.686Z,98.49
2022-12-17T07:38:52.522Z,98.39
2022-12-17T07:40:43.055Z,98.31
2022-12-17T07:42:34.239Z,98.29
2022-12-17T07:44:25.004Z,97.89
2022-12-17T07:46:15.707Z,98.01
2022-12-17T07:48:13.441Z,97.67
2022-12-17T07:50:03.917Z,97.22
2022-12-17T07:51:54.406Z,97.38
2022-12-17T07:53:45.105Z,96.93
2022-12-17T07:55:35.830Z,96.55
2022-12-17T07:57:26.533Z,96.66
2022-12-17T07:59:17.164Z,96.52
2022-12-17T08:01:07.879Z,96.35
2022-12-17T08:02:58.460Z,96.67
2022-12-17T08:04:48.995Z,96.37
2022-12-17T08:06:39.645Z,96.20
2022-12-17T08:08:31.972Z,96.05
2022-12-17T08:10:22.852Z,95.76
2022-12-17T08:12:13.628Z,95.57
2022-12-17T08:14:04.438Z,95.34
2022-12-17T08:15:54.857Z,95.53
2022-12-17T08:17:45.777Z,95.75
2022-12-17T08:19:36.650Z,96.20
2022-12-17T08:21:27.186Z,95.99
2022-12-17T08:23:23.982Z,96.19
2022-12-17T08:25:14.736Z,96.13
2022-12-17T08:27:05.573Z,95.91
2022-12-17T08:28:56.256Z,96.20
2022-12-17T08:30:47.373Z,96.29
2022-12-17T08:32:38.025Z,96.19
2022-12-17T08:34:28.711Z,96.28
2022-12-17T08:36:19.410Z,96.35
2022-12-17T08:38:10.153Z,96.34
2022-12-17T08:40:00.850Z,96.26
2022-12-17T08:41:54.893Z,96.10
2022-12-17T08:43:47.379Z,96.17
2022-12-17T08:45:37.995Z,96.07
2022-12-17T08:47:28.842Z,96.03
2022-12-17T08:49:19.859Z,95.75
2022-12-17T08:51:10.721Z,95.67
2022-12-17T08:53:01.336Z,95.97
2022-12-17T08:54:52.244Z,96.07
2022-12-17T08:56:43.079Z,96.04
2022-12-17T08:58:33.853Z,95.80
2022-12-17T09:00:25.212Z,95.83
2022-12-17T09:02:15.942Z,95.82
2022-12-17T09:04:06.557Z,95.43
2022-12-17T09:05:57.214Z,95.45
2022-12-17T09:07:47.845Z,95.15
2022-12-17T09:09:38.440Z,95.04
2022-12-17T09:11:29.040Z,95.06
2022-12-17T09:13:22.752Z,94.69
2022-12-17T09:15:13.557Z,94.49
2022-12-17T09:17:04.332Z,94.62
2022-12-17T09:18:55.103Z,94.47
2022-12-17T09:20:45.763Z,94.56
2022-12-17T09:22:36.604Z,94.40
2022-12-17T09:24:28.864Z,94.35
2022-12-17T09:26:19.528Z,94.66
2022-12-17T09:28:10.272Z,94.28
2022-12-17T09:30:00.992Z,94.80
2022-12-17T09:31:51.771Z,95.39
2022-12-17T09:33:42.437Z,95.57
2022-12-17T09:35:33.152Z,95.88
2022-12-17T09:37:24.386Z,95.63
2022-12-17T09:39:15.151Z,95.83
2022-12-17T09:41:07.931Z,95.63
2022-12-17T09:43:43.594Z,95.98
2022-12-17T09:45:45.078Z,95.98
2022-12-17T09:48:03.774Z,96.43
2022-12-17T09:49:54.494Z,96.30
2022-12-17T09:51:46.884Z,96.06
2022-12-17T09:53:58.867Z,95.78
2022-12-17T09:55:53.169Z,95.60
2022-12-17T09:57:54.801Z,94.89
2022-12-17T09:59:47.846Z,94.46
2022-12-17T10:01:47.403Z,94.13
2022-12-17T10:03:41.079Z,93.84
2022-12-17T10:05:40.404Z,93.62
2022-12-17T10:07:33.288Z,93.67
2022-12-17T10:09:37.381Z,93.06
2022-12-17T10:13:00.875Z,92.73
2022-12-17T10:14:51.747Z,92.41
2022-12-17T10:16:45.259Z,92.57
2022-12-17T10:18:35.921Z,92.56
2022-12-17T10:20:51.614Z,92.19
2022-12-17T10:22:42.687Z,92.51
2022-12-17T10:24:33.489Z,92.74
2022-12-17T10:26:25.229Z,92.89
2022-12-17T10:28:21.041Z,93.14
2022-12-17T10:30:12.357Z,93.15
2022-12-17T10:32:03.284Z,93.62
2022-12-17T10:33:58.000Z,93.68
2022-12-17T10:35:55.744Z,93.93
2022-12-17T10:37:46.748Z,94.34
2022-12-17T10:39:40.557Z,94.34
2022-12-17T10:41:41.069Z,94.52
2022-12-17T10:43:46.453Z,94.54
2022-12-17T10:45:40.621Z,94.94
2022-12-17T10:47:32.695Z,95.43
2022-12-17T10:49:35.205Z,96.60
2022-12-17T10:51:37.386Z,96.99
2022-12-17T10:53:42.142Z,96.52
2022-12-17T10:55:46.316Z,96.77
2022-12-17T10:57:57.512Z,96.88
2022-12-17T10:59:55.618Z,97.92
2022-12-17T11:01:46.528Z,98.44
2022-12-17T11:04:05.024Z,98.44
2022-12-17T11:05:59.597Z,98.17
2022-12-17T11:07:53.499Z,98.29
2022-12-17T11:10:08.638Z,98.49
2022-12-17T11:12:05.664Z,98.20
2022-12-17T11:14:04.127Z,97.99
2022-12-17T11:15:59.337Z,97.76
2022-12-17T11:17:50.103Z,96.96
2022-12-17T11:19:47.523Z,96.81
2022-12-17T11:21:45.873Z,96.63
2022-12-17T11:23:38.612Z,96.33
2022-12-17T11:26:06.857Z,95.68
2022-12-17T11:28:03.757Z,95.85
2022-12-17T11:29:57.360Z,95.76
2022-12-17T11:32:03.038Z,95.63
2022-12-17T11:33:58.260Z,96.32
2022-12-17T11:36:02.711Z,96.70
2022-12-17T11:38:22.440Z,96.30
2022-12-17T11:40:18.867Z,97.25
2022-12-17T11:42:38.293Z,98.08
2022-12-17T11:45:14.828Z,97.49
2022-12-17T11:47:21.690Z,97.56
2022-12-17T11:49:42.032Z,97.69
2022-12-17T11:51:47.416Z,98.43
2022-12-17T11:53:45.743Z,98.43
2022-12-17T11:55:56.180Z,98.27
2022-12-17T11:58:10.494Z,98.66
2022-12-17T12:00:08.574Z,98.75
2022-12-17T12:02:28.080Z,97.64
2022-12-17T12:04:53.638Z,96.81
2022-12-17T12:06:43.859Z,95.59
2022-12-17T12:08:46.976Z,94.54
2022-12-17T12:11:17.539Z,93.46
2022-12-17T12:13:48.898Z,93.50
2022-12-17T12:16:01.342Z,93.50
2022-12-17T12:18:13.348Z,93.32
2022-12-17T12:20:09.954Z,93.31
2022-12-17T12:22:13.792Z,93.44
2022-12-17T12:24:07.485Z,94.89
2022-12-17T12:26:06.968Z,94.49
2022-12-17T12:28:22.799Z,94.77
2022-12-17T12:30:40.077Z,95.65
2022-12-17T12:32:42.824Z,97.61
2022-12-17T12:34:37.386Z,98.57
2022-12-17T12:36:30.557Z,98.06
2022-12-17T12:38:24.726Z,97.16
2022-12-17T12:40:18.509Z,96.47
2022-12-17T12:42:26.573Z,94.53
2022-12-17T12:44:19.413Z,92.80
2022-12-17T12:46:16.766Z,91.73
2022-12-17T12:48:17.904Z,90.94
2022-12-17T12:50:42.421Z,90.41
2022-12-17T12:52:40.726Z,89.59
2022-12-17T12:54:51.763Z,89.07
2022-12-17T12:56:47.460Z,88.71
2022-12-17T12:58:47.202Z,87.60
2022-12-17T13:00:41.260Z,86.98
2022-12-17T13:02:48.996Z,85.75
2022-12-17T13:04:52.830Z,84.63
2022-12-17T13:06:56.803Z,84.55
2022-12-17T13:08:29.063Z,84.37
2022-12-17T13:10:01.247Z,84.32
2022-12-17T13:11:39.492Z,83.40
2022-12-17T13:13:31.863Z,83.15
2022-12-17T13:15:06.500Z,83.08
2022-12-17T13:17:05.487Z,83.20
2022-12-17T13:18:41.272Z,82.86
2022-12-17T13:20:26.481Z,83.05
2022-12-17T13:22:24.053Z,82.80
2022-12-17T13:23:56.654Z,82.26
2022-12-17T13:25:29.632Z,81.85
2022-12-17T13:27:01.690Z,81.83
2022-12-17T13:28:33.773Z,81.98
2022-12-17T13:30:21.973Z,80.84
2022-12-17T13:31:57.352Z,81.20
2022-12-17T13:34:07.403Z,81.16
2022-12-17T13:36:20.711Z,81.12
2022-12-17T13:38:02.315Z,82.06
2022-12-17T13:41:12.782Z,82.91
2022-12-17T13:42:46.434Z,82.85
2022-12-17T13:44:21.776Z,83.22
2022-12-17T13:45:55.771Z,83.40
2022-12-17T13:47:32.879Z,83.29
2022-12-17T13:49:12.174Z,84.42
2022-12-17T13:50:54.195Z,84.04
2022-12-17T13:52:27.743Z,84.29
2022-12-17T13:54:01.612Z,84.65
2022-12-17T13:55:33.680Z,84.63
2022-12-17T13:57:28.128Z,85.25
2022-12-17T13:59:08.380Z,84.85
2022-12-17T14:00:41.488Z,85.29
2022-12-17T14:02:31.855Z,85.21
2022-12-17T14:04:06.660Z,84.96
2022-12-17T14:05:42.673Z,84.79
2022-12-17T14:07:14.831Z,84.73
2022-12-17T14:08:48.414Z,84.89
2022-12-17T14:10:20.915Z,84.45
2022-12-17T14:12:11.541Z,84.45
2022-12-17T14:13:48.468Z,84.44
2022-12-17T14:15:25.202Z,84.21
2022-12-17T14:16:57.350Z,84.08
2022-12-17T14:18:29.463Z,84.20
2022-12-17T14:20:21.538Z,83.92
2022-12-17T14:21:53.732Z,84.07
2022-12-17T14:23:33.045Z,84.12
2022-12-17T14:25:07.030Z,84.13
2022-12-17T14:26:50.282Z,83.89
2022-12-17T14:28:39.116Z,84.02
2022-12-17T14:30:26.353Z,83.88
2022-12-17T14:32:00.854Z,84.04
2022-12-17T14:33:38.068Z,83.89
2022-12-17T14:35:27.374Z,84.26
2022-12-17T14:37:00.827Z,84.55
2022-12-17T14:38:42.014Z,84.35
2022-12-17T14:40:16.209Z,84.64
2022-12-17T14:42:07.022Z,84.64
2022-12-17T14:43:39.058Z,84.83
2022-12-17T14:45:17.160Z,84.72
2022-12-17T14:46:49.411Z,84.84
2022-12-17T14:48:45.822Z,84.93
2022-12-17T14:50:17.744Z,85.35
2022-12-17T14:51:50.494Z,85.24
2022-12-17T14:53:27.762Z,85.40
2022-12-17T14:54:59.953Z,85.46
2022-12-17T14:56:32.032Z,85.73
2022-12-17T14:58:13.116Z,85.66
2022-12-17T14:59:45.731Z,85.85
2022-12-17T15:01:17.918Z,85.67
2022-12-17T15:02:53.216Z,86.06
2022-12-17T15:04:25.669Z,85.96
2022-12-17T15:06:18.885Z,85.97
2022-12-17T15:07:52.220Z,86.07
2022-12-17T15:09:24.488Z,85.99
2022-12-17T15:10:56.518Z,86.06
2022-12-17T15:12:28.697Z,86.07
2022-12-17T15:14:01.074Z,86.17
2022-12-17T15:15:33.109Z,87.03
2022-12-17T15:17:06.235Z,86.82
2022-12-17T15:18:41.404Z,87.14
2022-12-17T15:20:18.593Z,87.22
2022-12-17T15:21:51.156Z,87.21
2022-12-17T15:23:23.923Z,87.80
2022-12-17T15:24:56.121Z,87.82
2022-12-17T15:26:28.299Z,87.74
2022-12-17T15:28:00.423Z,87.79
2022-12-17T15:29:32.522Z,87.61
2022-12-17T15:31:04.754Z,87.94
2022-12-17T15:32:36.837Z,87.96
2022-12-17T15:34:11.208Z,88.32
2022-12-17T15:35:43.700Z,88.33
2022-12-17T15:37:18.802Z,88.50
2022-12-17T15:38:54.615Z,88.29
2022-12-17T15:40:26.816Z,88.32
2022-12-17T15:42:17.389Z,88.63
2022-12-17T15:43:50.401Z,88.51
2022-12-17T15:45:25.161Z,88.53
2022-12-17T15:46:57.240Z,88.83
2022-12-17T15:48:29.658Z,88.87
2022-12-17T15:50:01.625Z,88.62
2022-12-17T15:51:33.689Z,88.73
2022-12-17T15:53:05.757Z,89.04
2022-12-17T15:54:37.905Z,89.05
2022-12-17T15:56:25.464Z,89.33
2022-12-17T15:57:58.898Z,89.26
2022-12-17T15:59:33.957Z,88.62
2022-12-17T16:01:06.945Z,89.13
2022-12-17T16:02:39.382Z,89.12
2022-12-17T16:04:17.893Z,89.29
2022-12-17T16:05:53.696Z,89.18
2022-12-17T16:07:25.873Z,89.34
2022-12-17T16:08:58.012Z,89.21
2022-12-17T16:10:30.527Z,89.61
2022-12-17T16:12:02.611Z,89.45
2022-12-17T16:13:34.666Z,89.82
2022-12-17T16:15:08.484Z,89.53
2022-12-17T16:16:40.534Z,90.05
2022-12-17T16:19:50.236Z,90.12
2022-12-17T16:21:22.283Z,90.21
2022-12-17T16:22:54.295Z,90.46
2022-12-17T16:24:26.371Z,90.20
2022-12-17T16:25:59.960Z,90.41
2022-12-17T16:27:32.075Z,90.45
2022-12-17T16:29:04.284Z,90.53
2022-12-17T16:30:36.288Z,90.65
2022-12-17T16:32:08.407Z,90.91
2022-12-17T16:33:42.519Z,90.77
2022-12-17T16:35:14.600Z,90.75
2022-12-17T16:36:46.638Z,91.00
2022-12-17T16:38:18.894Z,91.06
2022-12-17T16:39:59.582Z,91.25
2022-12-17T16:41:32.933Z,91.64
2022-12-17T16:43:04.925Z,91.93
2022-12-17T16:44:37.161Z,91.99
2022-12-17T16:46:39.153Z,92.03
2022-12-17T16:48:11.264Z,92.18
2022-12-17T16:49:43.367Z,92.59
2022-12-17T16:51:27.926Z,92.69
2022-12-17T16:53:00.819Z,92.83
2022-12-17T16:54:34.052Z,92.99
2022-12-17T16:56:06.509Z,93.21
2022-12-17T16:57:38.521Z,93.35
2022-12-17T16:59:11.698Z,93.38
2022-12-17T17:00:44.047Z,93.36
2022-12-17T17:02:16.708Z,93.53
2022-12-17T17:03:49.958Z,94.26
2022-12-17T17:05:22.052Z,94.11
2022-12-17T17:06:56.354Z,94.09
2022-12-17T17:08:31.308Z,94.10
2022-12-17T17:10:03.428Z,94.18
2022-12-17T17:11:35.990Z,94.34
2022-12-17T17:13:08.036Z,94.18
2022-12-17T17:14:40.817Z,94.14
2022-12-17T17:16:12.936Z,93.87
2022-12-17T17:19:19.600Z,93.89
2022-12-17T17:20:51.698Z,93.91
2022-12-17T17:22:23.789Z,94.13
2022-12-17T17:23:58.869Z,93.88
2022-12-17T17:25:50.231Z,93.83
2022-12-17T17:27:22.923Z,93.87
2022-12-17T17:28:55.034Z,93.79
2022-12-17T17:30:28.235Z,94.02
2022-12-17T17:32:15.525Z,93.81
2022-12-17T17:33:49.643Z,93.85
2022-12-17T17:35:21.661Z,94.07
2022-12-17T17:36:53.780Z,94.03
2022-12-17T17:38:25.905Z,93.89
2022-12-17T17:39:57.991Z,94.08
2022-12-17T17:41:32.485Z,93.83
2022-12-17T17:43:04.476Z,94.00
2022-12-17T17:44:37.534Z,93.75
2022-12-17T17:46:12.644Z,93.90
2022-12-17T17:47:44.798Z,93.91
2022-12-17T17:49:17.412Z,93.94
2022-12-17T17:51:03.888Z,94.13
2022-12-17T17:54:14.508Z,94.21
2022-12-17T17:55:46.588Z,94.16
2022-12-17T17:57:18.655Z,93.99
2022-12-17T17:58:56.108Z,94.21
2022-12-17T18:00:28.621Z,94.16
2022-12-17T18:02:01.297Z,94.16
2022-12-17T18:03:33.631Z,94.08
2022-12-17T18:05:06.341Z,94.44
2022-12-17T18:06:43.014Z,94.30
2022-12-17T18:08:25.147Z,94.61
2022-12-17T18:09:57.717Z,94.74
2022-12-17T18:11:31.152Z,94.93
2022-12-17T18:13:22.100Z,95.18
2022-12-17T18:16:47.728Z,95.71
2022-12-17T18:18:21.993Z,95.35
2022-12-17T18:19:54.047Z,95.61
2022-12-17T18:21:27.564Z,95.62
2022-12-17T18:22:59.445Z,95.28
2022-12-17T18:24:31.463Z,95.74
2022-12-17T18:26:18.100Z,95.85
2022-12-17T18:27:53.074Z,95.89
2022-12-17T18:29:27.152Z,95.85
2022-12-17T18:30:59.576Z,95.93
2022-12-17T18:32:31.750Z,95.88
2022-12-17T18:34:04.986Z,95.66
2022-12-17T18:35:37.020Z,95.79
2022-12-17T18:37:09.239Z,95.72
2022-12-17T18:38:41.989Z,95.47
2022-12-17T18:40:14.323Z,95.28
2022-12-17T18:42:05.992Z,95.33
2022-12-17T18:43:40.168Z,95.23
2022-12-17T18:45:12.187Z,95.29
2022-12-17T18:46:44.435Z,95.25
2022-12-17T18:48:16.535Z,94.98
2022-12-17T18:49:48.699Z,95.14
2022-12-17T18:51:22.411Z,95.02
2022-12-17T18:52:54.571Z,94.92
2022-12-17T18:54:28.627Z,94.86
2022-12-17T18:56:08.417Z,94.95
2022-12-17T18:57:41.061Z,94.75
2022-12-17T18:59:14.016Z,94.73
2022-12-17T19:00:46.138Z,94.93
2022-12-17T19:02:18.874Z,94.80
2022-12-17T19:03:51.713Z,95.00
2022-12-17T19:05:23.753Z,94.91
2022-12-17T19:06:58.815Z,94.82
2022-12-17T19:08:30.863Z,94.83
2022-12-17T19:10:03.134Z,94.96
2022-12-17T19:11:41.936Z,94.77
2022-12-17T19:13:15.552Z,94.84
2022-12-17T19:14:47.564Z,95.23
2022-12-17T19:16:22.599Z,94.86
2022-12-17T19:17:54.658Z,94.96
2022-12-17T19:19:27.044Z,94.83
2022-12-17T19:20:59.587Z,94.84
2022-12-17T19:22:31.594Z,94.93
2022-12-17T19:24:06.814Z,94.83
2022-12-17T19:25:38.874Z,95.09
2022-12-17T19:27:11.096Z,94.74
2022-12-17T19:28:44.914Z,95.06
2022-12-17T19:30:17.507Z,95.12
2022-12-17T19:31:49.769Z,95.05
2022-12-17T19:33:22.019Z,95.02
2022-12-17T19:34:54.168Z,95.13
2022-12-17T19:36:28.605Z,95.08
2022-12-17T19:38:03.892Z,95.04
2022-12-17T19:39:35.910Z,95.09
2022-12-17T19:41:15.187Z,94.94
2022-12-17T19:42:47.301Z,94.87
2022-12-17T19:44:22.564Z,95.19
2022-12-17T19:45:54.638Z,95.22
2022-12-17T19:47:27.084Z,95.05
2022-12-17T19:48:59.601Z,95.02
2022-12-17T19:50:31.614Z,94.84
2022-12-17T19:52:03.669Z,95.20
2022-12-17T19:53:36.674Z,95.28
2022-12-17T19:55:09.180Z,95.29
2022-12-17T19:56:42.545Z,95.17
2022-12-17T19:58:14.917Z,95.47
2022-12-17T19:59:47.189Z,95.47
2022-12-17T20:01:21.803Z,95.62
2022-12-17T20:02:54.091Z,95.55
2022-12-17T20:04:26.247Z,95.88
2022-12-17T20:05:59.346Z,95.82
2022-12-17T20:07:31.300Z,95.75
2022-12-17T20:09:06.013Z,96.09
2022-12-17T20:10:38.719Z,95.95
2022-12-17T20:12:11.363Z,95.90
2022-12-17T20:13:43.391Z,95.74
2022-12-17T20:15:15.645Z,95.90
2022-12-17T20:16:53.328Z,95.78
2022-12-17T20:18:25.448Z,95.94
2022-12-17T20:19:58.103Z,95.67
2022-12-17T20:21:30.346Z,95.65
2022-12-17T20:23:02.369Z,95.33
2022-12-17T20:24:34.462Z,94.90
2022-12-17T20:26:08.848Z,94.22
2022-12-17T20:27:41.017Z,93.09
2022-12-17T20:29:13.138Z,93.06
2022-12-17T20:30:45.371Z,92.85
2022-12-17T20:32:19.697Z,92.96
2022-12-17T20:33:51.817Z,92.54
2022-12-17T20:35:23.867Z,92.20
2022-12-17T20:36:55.913Z,91.92
2022-12-17T20:38:27.963Z,91.60
2022-12-17T20:40:00.017Z,91.38
2022-12-17T20:41:32.651Z,91.24
2022-12-17T20:43:04.990Z,90.37
2022-12-17T20:44:36.961Z,90.07
2022-12-17T20:46:10.053Z,90.19
2022-12-17T20:47:42.090Z,90.12
2022-12-17T20:49:15.094Z,90.13
2022-12-17T20:50:47.180Z,89.63
2022-12-17T20:52:19.556Z,89.51
2022-12-17T20:53:53.747Z,89.57
2022-12-17T20:55:30.955Z,89.43
2022-12-17T20:57:03.374Z,89.53
2022-12-17T20:58:36.187Z,89.42
2022-12-17T21:00:10.122Z,89.36
2022-12-17T21:01:42.280Z,89.45
2022-12-17T21:03:14.477Z,89.47
2022-12-17T21:04:49.668Z,89.52
2022-12-17T21:06:23.072Z,89.61
2022-12-17T21:07:55.070Z,89.62
2022-12-17T21:09:29.711Z,89.55
2022-12-17T21:11:01.853Z,89.70
2022-12-17T21:12:53.757Z,89.79
2022-12-17T21:14:28.079Z,89.68
2022-12-17T21:16:16.905Z,89.66
2022-12-17T21:17:49.048Z,89.65
2022-12-17T21:19:21.269Z,89.90
2022-12-17T21:20:57.064Z,89.66
2022-12-17T21:22:29.110Z,89.53
2022-12-17T21:24:02.081Z,89.61
2022-12-17T21:25:34.133Z,89.49
2022-12-17T21:27:11.122Z,89.78
2022-12-17T21:28:48.292Z,89.35
2022-12-17T21:30:20.498Z,89.16
2022-12-17T21:31:52.872Z,88.15
2022-12-17T21:33:25.004Z,86.60
2022-12-17T21:34:57.320Z,86.52
2022-12-17T21:36:30.618Z,86.22
2022-12-17T21:38:03.069Z,86.49
2022-12-17T21:39:35.056Z,86.24
2022-12-17T21:41:10.142Z,86.13
2022-12-17T21:43:00.866Z,86.13
2022-12-17T21:44:32.981Z,86.21
2022-12-17T21:46:05.828Z,85.93
2022-12-17T21:47:37.883Z,85.80
2022-12-17T21:49:10.469Z,86.07
2022-12-17T21:52:14.588Z,86.33
2022-12-17T21:53:47.120Z,86.88
2022-12-17T21:55:19.144Z,87.34
2022-12-17T21:56:51.217Z,87.39
2022-12-17T21:58:23.313Z,87.32
2022-12-17T21:59:55.331Z,87.30
2022-12-17T22:01:30.362Z,86.94
2022-12-17T22:03:02.673Z,86.86
2022-12-17T22:04:34.755Z,87.04
2022-12-17T22:06:12.296Z,87.02
2022-12-17T22:07:48.898Z,86.61
2022-12-17T22:09:39.591Z,86.65
2022-12-17T22:11:19.279Z,86.77
2022-12-17T22:13:10.492Z,86.83
2022-12-17T22:14:42.482Z,86.56
2022-12-17T22:16:14.695Z,86.25
2022-12-17T22:17:46.740Z,86.56
2022-12-17T22:19:23.503Z,86.66
2022-12-17T22:21:00.128Z,86.81
2022-12-17T22:22:32.206Z,87.08
2022-12-17T22:24:04.816Z,86.78
2022-12-17T22:25:38.555Z,86.51
2022-12-17T22:27:10.669Z,87.05
2022-12-17T22:28:44.331Z,87.99
2022-12-17T22:30:36.388Z,88.02
2022-12-17T22:32:29.007Z,87.31
2022-12-17T22:35:58.246Z,87.00
2022-12-17T22:37:51.829Z,86.74
2022-12-17T22:40:21.582Z,85.99
2022-12-17T22:42:39.908Z,86.11
2022-12-17T22:44:33.578Z,85.95
2022-12-17T22:55:34.969Z,85.10
2022-12-17T22:57:35.376Z,84.99
2022-12-17T22:59:02.501Z,85.06
2022-12-17T23:00:36.228Z,84.91
2022-12-17T23:02:09.566Z,85.01
2022-12-17T23:03:41.930Z,85.26
2022-12-17T23:05:15.039Z,85.44
2022-12-17T23:06:47.545Z,85.52
2022-12-17T23:08:19.691Z,85.35